Time;durP1;ratioP1;P1;durP2;ratioP2;P2;SDS_P1;SDS_P2;PMS_P1;PMS_P2;Temp;Humidity;BMP_temperature;BMP_pressure;BME280_temperature;BME280_humidity;BME280_pressure;Samples;Min_cycle;Max_cycle;Signal;HPM_P1;HPM_P2
2023/05/19 00:01:20;;;;;;;2.40;1.67;;;;;;;;;;5074240;28;20207;-37
2023/05/19 00:03:54;;;;;;;2.70;1.85;;;;;;;;;;5074200;28;20635;-37
2023/05/19 00:06:24;;;;;;;3.70;1.83;;;;;;;;;;5074383;28;20187;-37
2023/05/19 00:08:56;;;;;;;2.38;1.80;;;;;;;;;;5074064;28;20195;-37
2023/05/19 00:11:25;;;;;;;2.28;2.00;;;;;;;;;;5074249;28;20188;-37
2023/05/19 00:13:57;;;;;;;1.98;1.60;;;;;;;;;;5073725;28;20604;-37
2023/05/19 00:16:26;;;;;;;1.83;1.50;;;;;;;;;;5073806;28;20211;-38
2023/05/19 00:18:53;;;;;;;4.50;1.70;;;;;;;;;;5073955;28;20265;-38
2023/05/19 00:21:20;;;;;;;2.50;1.65;;;;;;;;;;5073787;28;20207;-37
2023/05/19 00:23:47;;;;;;;2.70;1.75;;;;;;;;;;5073903;28;20206;-37
2023/05/19 00:26:15;;;;;;;6.45;1.73;;;;;;;;;;5073952;28;20211;-37
2023/05/19 00:28:52;;;;;;;2.00;1.25;;;;;;;;;;5072590;28;20289;-37
2023/05/19 00:31:19;;;;;;;1.90;1.45;;;;;;;;;;5073606;28;20629;-37
2023/05/19 00:33:46;;;;;;;2.88;1.40;;;;;;;;;;5072605;28;20223;-37
2023/05/19 00:36:14;;;;;;;3.55;1.40;;;;;;;;;;5073557;28;20667;-37
2023/05/19 00:38:41;;;;;;;1.95;1.33;;;;;;;;;;5072335;28;20663;-37
2023/05/19 00:41:09;;;;;;;3.05;1.20;;;;;;;;;;5072397;28;20329;-37
2023/05/19 00:43:36;;;;;;;1.88;1.45;;;;;;;;;;5072985;28;20203;-37
2023/05/19 00:46:04;;;;;;;2.40;1.80;;;;;;;;;;5073874;28;20211;-37
2023/05/19 00:48:31;;;;;;;3.03;1.73;;;;;;;;;;5073679;28;20202;-37
2023/05/19 00:51:03;;;;;;;1.58;1.30;;;;;;;;;;5072421;28;20258;-39
2023/05/19 00:53:31;;;;;;;3.15;1.42;;;;;;;;;;5072260;28;20204;-38
2023/05/19 00:55:59;;;;;;;2.22;1.45;;;;;;;;;;5055732;28;20199;-37
2023/05/19 00:58:29;;;;;;;1.75;1.30;;;;;;;;;;5073569;28;20204;-37
2023/05/19 01:01:02;;;;;;;1.35;1.25;;;;;;;;;;5072317;28;20556;-37
2023/05/19 01:03:33;;;;;;;1.67;1.20;;;;;;;;;;5073320;28;20253;-37
2023/05/19 01:06:04;;;;;;;1.58;1.20;;;;;;;;;;5073621;28;20200;-37
2023/05/19 01:08:32;;;;;;;2.58;1.20;;;;;;;;;;5073182;28;20191;-37
2023/05/19 01:11:00;;;;;;;1.27;0.98;;;;;;;;;;5073504;28;20207;-37
2023/05/19 01:13:28;;;;;;;1.70;1.35;;;;;;;;;;5072065;28;20608;-37
2023/05/19 01:16:11;;;;;;;2.25;1.33;;;;;;;;;;5073133;28;20230;-37
2023/05/19 01:18:54;;;;;;;2.38;1.38;;;;;;;;;;5072020;28;20299;-37
2023/05/19 01:21:43;;;;;;;1.58;1.10;;;;;;;;;;5071994;28;20198;-38
2023/05/19 01:24:29;;;;;;;2.00;1.52;;;;;;;;;;5073500;28;20213;-37
2023/05/19 01:27:02;;;;;;;1.30;1.20;;;;;;;;;;5072414;28;20191;-37
2023/05/19 01:29:57;;;;;;;1.40;1.02;;;;;;;;;;5071865;28;20213;-37
2023/05/19 01:32:25;;;;;;;1.88;1.35;;;;;;;;;;5071849;28;20668;-37
2023/05/19 01:34:54;;;;;;;3.10;1.40;;;;;;;;;;5071979;28;20223;-37
2023/05/19 01:37:23;;;;;;;2.95;1.40;;;;;;;;;;5072064;28;20214;-37
2023/05/19 01:39:50;;;;;;;1.02;0.95;;;;;;;;;;5055484;28;20210;-37
2023/05/19 01:42:19;;;;;;;1.70;1.10;;;;;;;;;;5071719;28;20203;-39
2023/05/19 01:44:46;;;;;;;1.90;1.40;;;;;;;;;;5071633;28;20207;-37
2023/05/19 01:47:14;;;;;;;2.17;1.40;;;;;;;;;;5055188;28;20199;-37
2023/05/19 01:49:41;;;;;;;1.42;1.10;;;;;;;;;;5071517;28;20195;-37
2023/05/19 01:52:09;;;;;;;1.25;1.15;;;;;;;;;;5071823;28;20212;-37
2023/05/19 01:54:36;;;;;;;3.05;1.20;;;;;;;;;;5072485;28;20227;-37
2023/05/19 01:57:16;;;;;;;1.88;1.00;;;;;;;;;;5075541;28;20207;-37
2023/05/19 02:00:04;;;;;;;1.40;1.10;;;;;;;;;;5075463;28;20238;-37
2023/05/19 02:03:06;;;;;;;2.70;1.08;;;;;;;;;;5076339;28;20204;-37
2023/05/19 02:05:57;;;;;;;1.50;1.05;;;;;;;;;;5076206;28;20214;-37
2023/05/19 02:08:49;;;;;;;1.17;1.08;;;;;;;;;;5075943;28;20245;-37
2023/05/19 02:11:27;;;;;;;1.27;1.10;;;;;;;;;;5076376;28;20191;-38
2023/05/19 02:14:00;;;;;;;1.60;1.25;;;;;;;;;;5074891;28;20210;-37
2023/05/19 02:16:28;;;;;;;1.15;1.05;;;;;;;;;;5074958;28;20200;-37
2023/05/19 02:18:56;;;;;;;1.52;1.20;;;;;;;;;;5075014;28;20203;-37
2023/05/19 02:21:23;;;;;;;1.02;0.88;;;;;;;;;;5074588;28;20261;-37
2023/05/19 02:23:50;;;;;;;2.15;1.13;;;;;;;;;;5075958;28;20207;-37
2023/05/19 02:26:18;;;;;;;1.85;1.20;;;;;;;;;;5075700;28;20659;-39
2023/05/19 02:28:46;;;;;;;1.35;1.13;;;;;;;;;;5075844;28;20204;-37
2023/05/19 02:31:13;;;;;;;1.42;1.17;;;;;;;;;;5074667;28;20219;-37
2023/05/19 02:33:41;;;;;;;1.88;1.17;;;;;;;;;;5075658;28;20576;-37
2023/05/19 02:36:08;;;;;;;3.03;1.10;;;;;;;;;;5074251;28;20664;-37
2023/05/19 02:38:36;;;;;;;1.30;1.08;;;;;;;;;;5074632;28;20230;-37
2023/05/19 02:41:03;;;;;;;1.73;0.88;;;;;;;;;;5075434;28;20200;-37
2023/05/19 02:43:30;;;;;;;1.08;0.98;;;;;;;;;;5075660;28;20211;-37
2023/05/19 02:45:57;;;;;;;1.42;1.13;;;;;;;;;;5074214;28;20211;-37
2023/05/19 02:48:25;;;;;;;1.27;1.17;;;;;;;;;;5074368;28;20261;-37
2023/05/19 02:50:53;;;;;;;1.05;0.95;;;;;;;;;;5073984;28;20231;-37
2023/05/19 02:53:20;;;;;;;1.90;1.10;;;;;;;;;;5074273;28;20207;-38
2023/05/19 02:55:47;;;;;;;1.75;1.20;;;;;;;;;;5073954;28;20723;-37
2023/05/19 02:58:14;;;;;;;1.20;1.10;;;;;;;;;;5075103;28;20561;-37
2023/05/19 03:00:43;;;;;;;2.30;1.40;;;;;;;;;;5073886;28;20207;-37
2023/05/19 03:03:12;;;;;;;1.10;1.00;;;;;;;;;;5073816;28;20206;-38
2023/05/19 03:05:40;;;;;;;1.25;1.15;;;;;;;;;;5073692;28;20675;-37
2023/05/19 03:08:08;;;;;;;1.30;1.20;;;;;;;;;;5073845;28;20211;-37
2023/05/19 03:10:35;;;;;;;1.23;0.90;;;;;;;;;;5073899;28;20210;-37
2023/05/19 03:13:02;;;;;;;1.50;1.10;;;;;;;;;;5074013;28;20261;-37
2023/05/19 03:15:30;;;;;;;1.92;1.10;;;;;;;;;;5075051;28;20276;-37
2023/05/19 03:17:57;;;;;;;1.02;0.93;;;;;;;;;;5075012;28;20211;-37
2023/05/19 03:20:24;;;;;;;1.77;1.35;;;;;;;;;;5075142;28;20202;-37
2023/05/19 03:22:51;;;;;;;0.95;0.88;;;;;;;;;;5073953;28;20204;-37
2023/05/19 03:25:18;;;;;;;1.25;1.00;;;;;;;;;;5062147;28;20236;-38
2023/05/19 03:27:46;;;;;;;2.40;1.40;;;;;;;;;;5055022;28;20208;-38
2023/05/19 03:30:13;;;;;;;1.15;0.70;;;;;;;;;;5053792;28;20245;-37
2023/05/19 03:33:00;;;;;;;1.40;1.08;;;;;;;;;;5061276;28;20180;-37
2023/05/19 03:35:28;;;;;;;1.40;1.20;;;;;;;;;;5053723;28;20303;-39
2023/05/19 03:37:55;;;;;;;2.58;0.90;;;;;;;;;;5065694;28;20199;-37
2023/05/19 03:40:22;;;;;;;1.15;1.05;;;;;;;;;;5073421;28;20282;-37
2023/05/19 03:42:55;;;;;;;2.05;1.48;;;;;;;;;;5073495;28;20245;-38
2023/05/19 03:45:22;;;;;;;1.40;0.90;;;;;;;;;;5072935;28;20238;-39
2023/05/19 03:47:51;;;;;;;0.95;0.85;;;;;;;;;;5073104;28;20208;-38
2023/05/19 03:50:37;;;;;;;1.95;1.00;;;;;;;;;;5074551;28;20235;-37
2023/05/19 03:53:14;;;;;;;1.55;1.02;;;;;;;;;;5073131;28;20265;-38
2023/05/19 03:55:43;;;;;;;0.93;0.73;;;;;;;;;;5072930;28;20230;-37
2023/05/19 03:58:13;;;;;;;1.73;0.80;;;;;;;;;;5071632;28;20511;-37
2023/05/19 04:00:40;;;;;;;1.10;0.90;;;;;;;;;;5071915;28;20289;-38
2023/05/19 04:03:08;;;;;;;1.73;1.10;;;;;;;;;;5047400;28;20262;-38
2023/05/19 04:05:35;;;;;;;1.60;1.00;;;;;;;;;;5059245;28;20228;-37
2023/05/19 04:08:03;;;;;;;1.17;0.80;;;;;;;;;;5071604;28;20228;-37
2023/05/19 04:10:29;;;;;;;2.30;0.93;;;;;;;;;;5066518;28;20235;-37
2023/05/19 04:12:57;;;;;;;1.90;0.80;;;;;;;;;;5071027;28;20220;-40
2023/05/19 04:15:25;;;;;;;0.68;0.68;;;;;;;;;;5064190;28;20247;-37
2023/05/19 04:17:52;;;;;;;1.10;0.90;;;;;;;;;;5068416;28;20253;-39
2023/05/19 04:20:19;;;;;;;2.20;1.00;;;;;;;;;;5085438;28;20236;-37
2023/05/19 04:22:47;;;;;;;1.83;0.98;;;;;;;;;;5053578;28;20232;-38
2023/05/19 04:25:14;;;;;;;1.67;0.98;;;;;;;;;;5085510;28;20224;-38
2023/05/19 04:27:41;;;;;;;0.93;0.82;;;;;;;;;;5053319;28;20239;-37
2023/05/19 04:30:09;;;;;;;0.90;0.75;;;;;;;;;;5085155;28;20273;-37
2023/05/19 04:32:38;;;;;;;1.88;1.27;;;;;;;;;;5052782;28;20212;-38
2023/05/19 04:35:06;;;;;;;1.40;1.08;;;;;;;;;;5067613;28;20239;-39
2023/05/19 04:37:36;;;;;;;1.00;0.90;;;;;;;;;;5069885;28;20733;-37
2023/05/19 04:40:05;;;;;;;2.83;1.00;;;;;;;;;;5070936;28;20346;-38
2023/05/19 04:42:32;;;;;;;0.80;0.80;;;;;;;;;;5068570;28;20230;-38
2023/05/19 04:45:02;;;;;;;1.42;1.10;;;;;;;;;;5069668;28;20235;-39
2023/05/19 04:47:36;;;;;;;1.88;0.90;;;;;;;;;;5067950;28;20212;-39
2023/05/19 04:50:06;;;;;;;1.77;0.73;;;;;;;;;;5070080;28;20238;-38
2023/05/19 04:52:33;;;;;;;2.13;1.00;;;;;;;;;;5072254;28;20691;-38
2023/05/19 04:55:03;;;;;;;1.73;1.20;;;;;;;;;;5070809;28;20223;-37
2023/05/19 04:57:30;;;;;;;2.25;1.20;;;;;;;;;;5070834;28;20230;-40
2023/05/19 05:00:01;;;;;;;2.03;1.02;;;;;;;;;;5068022;28;20305;-39
2023/05/19 05:02:36;;;;;;;1.25;0.90;;;;;;;;;;5068107;28;20269;-38
2023/05/19 05:05:04;;;;;;;1.17;1.00;;;;;;;;;;5070829;28;20223;-37
2023/05/19 05:07:31;;;;;;;1.15;0.90;;;;;;;;;;5071413;28;20715;-37
2023/05/19 05:09:59;;;;;;;1.42;1.20;;;;;;;;;;5063464;28;20238;-39
2023/05/19 05:12:27;;;;;;;2.28;1.20;;;;;;;;;;5068064;28;20738;-38
2023/05/19 05:14:55;;;;;;;1.30;1.10;;;;;;;;;;5089799;28;20253;-38
2023/05/19 05:17:24;;;;;;;1.25;1.15;;;;;;;;;;5086688;28;20208;-38
2023/05/19 05:19:51;;;;;;;1.80;1.10;;;;;;;;;;5068805;28;20191;-37
2023/05/19 05:22:20;;;;;;;1.40;1.05;;;;;;;;;;5071402;28;20198;-38
2023/05/19 05:24:48;;;;;;;1.33;1.10;;;;;;;;;;5071612;28;20196;-37
2023/05/19 05:27:15;;;;;;;2.10;1.20;;;;;;;;;;5073332;28;20264;-37
2023/05/19 05:29:42;;;;;;;1.58;1.13;;;;;;;;;;5073065;28;20209;-37
2023/05/19 05:32:09;;;;;;;2.45;1.17;;;;;;;;;;5076123;28;20200;-36
2023/05/19 05:34:38;;;;;;;2.58;1.38;;;;;;;;;;5075798;28;20691;-37
2023/05/19 05:37:06;;;;;;;2.05;1.17;;;;;;;;;;5075692;28;20699;-37
2023/05/19 05:39:33;;;;;;;2.47;1.23;;;;;;;;;;5077080;28;20265;-37
2023/05/19 05:42:01;;;;;;;1.92;1.35;;;;;;;;;;5075612;28;20211;-37
2023/05/19 05:44:29;;;;;;;1.38;1.17;;;;;;;;;;5077108;28;20264;-37
2023/05/19 05:46:57;;;;;;;2.08;1.13;;;;;;;;;;5077250;28;20210;-37
2023/05/19 05:49:24;;;;;;;1.85;1.13;;;;;;;;;;5075539;28;20691;-37
2023/05/19 05:51:53;;;;;;;1.33;0.90;;;;;;;;;;5075251;28;20715;-37
2023/05/19 05:54:37;;;;;;;1.35;1.10;;;;;;;;;;5075754;28;20262;-37
2023/05/19 05:57:06;;;;;;;2.20;1.33;;;;;;;;;;5075475;28;20216;-36
2023/05/19 05:59:33;;;;;;;3.42;1.33;;;;;;;;;;5076406;28;20206;-37
2023/05/19 06:02:01;;;;;;;5.65;1.67;;;;;;;;;;5076470;28;20226;-37
2023/05/19 06:04:29;;;;;;;3.90;1.42;;;;;;;;;;5075401;28;20199;-37
2023/05/19 06:06:59;;;;;;;3.38;1.58;;;;;;;;;;5075206;28;20684;-37
2023/05/19 06:09:31;;;;;;;4.10;1.65;;;;;;;;;;5075184;28;20190;-37
2023/05/19 06:11:59;;;;;;;3.67;1.73;;;;;;;;;;5075220;28;20696;-37
2023/05/19 06:14:31;;;;;;;3.00;1.27;;;;;;;;;;5075534;28;20196;-38
2023/05/19 06:17:11;;;;;;;3.60;1.60;;;;;;;;;;5076617;28;20222;-37
2023/05/19 06:19:38;;;;;;;3.35;1.80;;;;;;;;;;5075165;28;20206;-37
2023/05/19 06:22:06;;;;;;;5.13;2.03;;;;;;;;;;5075080;28;20195;-37
2023/05/19 06:24:33;;;;;;;2.65;1.70;;;;;;;;;;5074862;28;20203;-37
2023/05/19 06:27:01;;;;;;;4.75;2.08;;;;;;;;;;5058456;28;20207;-37
2023/05/19 06:29:28;;;;;;;3.05;1.75;;;;;;;;;;5074652;28;20656;-37
2023/05/19 06:31:59;;;;;;;8.52;2.13;;;;;;;;;;5074764;28;20192;-36
2023/05/19 06:34:26;;;;;;;8.15;1.90;;;;;;;;;;5058176;28;20656;-37
2023/05/19 06:36:54;;;;;;;5.68;2.47;;;;;;;;;;5075120;28;20235;-37
2023/05/19 06:39:21;;;;;;;3.65;1.92;;;;;;;;;;5074837;28;20199;-37
2023/05/19 06:41:49;;;;;;;4.68;2.30;;;;;;;;;;5074965;28;20211;-37
2023/05/19 06:44:36;;;;;;;3.03;2.20;;;;;;;;;;5075545;28;20204;-37
2023/05/19 06:47:08;;;;;;;5.22;2.40;;;;;;;;;;5074493;28;20192;-37
2023/05/19 06:49:35;;;;;;;8.23;2.13;;;;;;;;;;5075465;28;20290;-37
2023/05/19 06:52:03;;;;;;;4.43;2.47;;;;;;;;;;5074821;28;20578;-37
2023/05/19 06:54:30;;;;;;;4.28;2.60;;;;;;;;;;5074356;28;20261;-37
2023/05/19 06:56:58;;;;;;;3.78;2.30;;;;;;;;;;5074420;28;20223;-37
2023/05/19 06:59:25;;;;;;;4.53;2.15;;;;;;;;;;5074256;28;20588;-37
2023/05/19 07:01:52;;;;;;;3.90;2.00;;;;;;;;;;5074371;28;20203;-37
2023/05/19 07:04:19;;;;;;;5.13;2.90;;;;;;;;;;5074214;28;20203;-37
2023/05/19 07:06:49;;;;;;;6.50;3.55;;;;;;;;;;5075189;28;20203;-37
2023/05/19 07:09:16;;;;;;;9.52;2.92;;;;;;;;;;5074407;28;20214;-37
2023/05/19 07:11:46;;;;;;;5.90;3.35;;;;;;;;;;5074153;28;20203;-36
2023/05/19 07:14:13;;;;;;;6.45;3.28;;;;;;;;;;5073953;28;20560;-37
2023/05/19 07:16:40;;;;;;;6.60;3.58;;;;;;;;;;5074086;28;20234;-37
2023/05/19 07:19:07;;;;;;;4.72;3.28;;;;;;;;;;5075038;28;20660;-37
2023/05/19 07:21:35;;;;;;;8.10;3.63;;;;;;;;;;5073676;28;20218;-37
2023/05/19 07:24:02;;;;;;;6.05;3.03;;;;;;;;;;5057586;28;20222;-37
2023/05/19 07:26:29;;;;;;;6.15;3.15;;;;;;;;;;5075135;28;20227;-37
2023/05/19 07:28:56;;;;;;;8.77;3.33;;;;;;;;;;5075039;28;20202;-36
2023/05/19 07:31:24;;;;;;;6.15;3.38;;;;;;;;;;5074751;28;20540;-37
2023/05/19 07:33:51;;;;;;;7.22;3.03;;;;;;;;;;5074681;28;20689;-37
2023/05/19 07:36:21;;;;;;;7.22;3.40;;;;;;;;;;5073632;28;20231;-37
2023/05/19 07:38:48;;;;;;;6.50;3.58;;;;;;;;;;5074855;28;20196;-37
2023/05/19 07:41:15;;;;;;;6.93;3.65;;;;;;;;;;5074504;28;20203;-37
2023/05/19 07:43:42;;;;;;;5.13;3.30;;;;;;;;;;5074798;28;20295;-37
2023/05/19 07:46:10;;;;;;;8.15;3.13;;;;;;;;;;5074561;28;20207;-37
2023/05/19 07:48:37;;;;;;;6.13;3.22;;;;;;;;;;5074645;28;20195;-37
2023/05/19 07:51:04;;;;;;;6.25;2.88;;;;;;;;;;5089026;28;20223;-37
2023/05/19 07:53:31;;;;;;;6.45;3.20;;;;;;;;;;5074228;28;20562;-37
2023/05/19 07:55:59;;;;;;;6.65;3.22;;;;;;;;;;5074126;28;20227;-37
2023/05/19 07:58:26;;;;;;;4.95;3.10;;;;;;;;;;5074283;28;20645;-37
2023/05/19 08:00:56;;;;;;;5.40;3.15;;;;;;;;;;5074143;28;20199;-37
2023/05/19 08:03:24;;;;;;;7.32;3.10;;;;;;;;;;5074154;28;20195;-37
2023/05/19 08:05:51;;;;;;;6.05;3.15;;;;;;;;;;5073744;28;20209;-37
2023/05/19 08:08:19;;;;;;;6.88;3.08;;;;;;;;;;5074189;28;20206;-39
2023/05/19 08:10:46;;;;;;;6.93;3.15;;;;;;;;;;5074029;28;20214;-37
2023/05/19 08:13:13;;;;;;;6.75;3.60;;;;;;;;;;5073625;28;20199;-37
2023/05/19 08:15:41;;;;;;;6.35;3.25;;;;;;;;;;5073384;28;20199;-37
2023/05/19 08:18:08;;;;;;;5.93;3.30;;;;;;;;;;5073920;28;20200;-37
2023/05/19 08:20:36;;;;;;;6.53;3.47;;;;;;;;;;5073864;28;20203;-37
2023/05/19 08:23:03;;;;;;;5.13;3.50;;;;;;;;;;5073776;28;20250;-37
2023/05/19 08:25:30;;;;;;;9.05;3.67;;;;;;;;;;5073941;28;20239;-37
2023/05/19 08:27:57;;;;;;;6.10;3.40;;;;;;;;;;5074063;28;20198;-37
2023/05/19 08:30:25;;;;;;;7.53;3.55;;;;;;;;;;5073572;28;20199;-38
2023/05/19 08:32:52;;;;;;;10.07;4.20;;;;;;;;;;5073683;28;20199;-37
2023/05/19 08:35:19;;;;;;;10.90;4.32;;;;;;;;;;5072643;28;20203;-37
2023/05/19 08:37:46;;;;;;;7.95;3.63;;;;;;;;;;5073460;28;20707;-37
2023/05/19 08:40:16;;;;;;;11.80;4.32;;;;;;;;;;5073563;28;20233;-37
2023/05/19 08:42:44;;;;;;;7.32;4.15;;;;;;;;;;5073509;28;20206;-37
2023/05/19 08:45:12;;;;;;;7.88;3.97;;;;;;;;;;5073734;28;20200;-37
2023/05/19 08:47:45;;;;;;;8.45;3.63;;;;;;;;;;5073428;28;20281;-37
2023/05/19 08:50:16;;;;;;;8.63;3.83;;;;;;;;;;5073711;28;20231;-37
2023/05/19 08:52:56;;;;;;;9.32;4.32;;;;;;;;;;5073367;28;20195;-37
2023/05/19 08:55:35;;;;;;;9.38;4.30;;;;;;;;;;5072555;28;20195;-37
2023/05/19 08:58:03;;;;;;;5.25;3.92;;;;;;;;;;5073595;28;20687;-37
2023/05/19 09:00:31;;;;;;;7.97;4.03;;;;;;;;;;5073266;28;20234;-37
2023/05/19 09:03:01;;;;;;;8.15;3.30;;;;;;;;;;5073408;28;20203;-37
2023/05/19 09:05:49;;;;;;;8.93;3.88;;;;;;;;;;5072733;28;20245;-37
2023/05/19 09:08:17;;;;;;;11.65;4.30;;;;;;;;;;5073341;28;20214;-37
2023/05/19 09:10:44;;;;;;;11.68;4.03;;;;;;;;;;5073159;28;20566;-37
2023/05/19 09:13:11;;;;;;;9.18;4.13;;;;;;;;;;5073422;28;20234;-37
2023/05/19 09:15:40;;;;;;;7.20;3.97;;;;;;;;;;5073301;28;20257;-37
2023/05/19 09:18:12;;;;;;;8.90;3.95;;;;;;;;;;5072019;28;20691;-37
2023/05/19 09:20:41;;;;;;;9.68;4.28;;;;;;;;;;5073347;28;20210;-37
2023/05/19 09:23:15;;;;;;;9.60;4.13;;;;;;;;;;5073111;28;20203;-37
2023/05/19 09:25:50;;;;;;;10.40;4.38;;;;;;;;;;5073115;28;20659;-37
2023/05/19 09:28:28;;;;;;;9.65;4.13;;;;;;;;;;5073061;28;20240;-37
2023/05/19 09:30:58;;;;;;;7.50;3.67;;;;;;;;;;5073101;28;20199;-37
2023/05/19 09:33:27;;;;;;;10.00;4.45;;;;;;;;;;5073221;28;20199;-38
2023/05/19 09:35:57;;;;;;;8.35;4.22;;;;;;;;;;5073163;28;20214;-37
2023/05/19 09:38:25;;;;;;;8.40;4.15;;;;;;;;;;5071177;28;20732;-37
2023/05/19 09:40:57;;;;;;;6.65;3.92;;;;;;;;;;5073021;28;20619;-37
2023/05/19 09:43:28;;;;;;;9.38;4.45;;;;;;;;;;5073313;28;20196;-37
2023/05/19 09:46:06;;;;;;;6.28;3.13;;;;;;;;;;5073021;28;20557;-37
2023/05/19 09:48:35;;;;;;;6.68;3.55;;;;;;;;;;5073066;28;20251;-37
2023/05/19 09:51:06;;;;;;;6.75;3.47;;;;;;;;;;5072533;28;20228;-37
2023/05/19 09:53:34;;;;;;;7.70;3.67;;;;;;;;;;5072800;28;20207;-37
2023/05/19 09:56:02;;;;;;;7.35;3.78;;;;;;;;;;5073230;28;20195;-37
2023/05/19 09:58:35;;;;;;;9.57;4.43;;;;;;;;;;5073069;28;20200;-37
2023/05/19 10:01:03;;;;;;;7.72;3.45;;;;;;;;;;5073102;28;20207;-37
2023/05/19 10:03:32;;;;;;;6.45;4.13;;;;;;;;;;5072876;28;20200;-37
2023/05/19 10:06:00;;;;;;;6.90;3.95;;;;;;;;;;5072126;28;20199;-37
2023/05/19 10:08:29;;;;;;;8.20;3.85;;;;;;;;;;5072981;28;20212;-37
2023/05/19 10:10:57;;;;;;;6.40;3.80;;;;;;;;;;5072587;28;20204;-37
2023/05/19 10:13:24;;;;;;;10.07;4.53;;;;;;;;;;5071518;28;20265;-38
2023/05/19 10:15:52;;;;;;;9.30;4.85;;;;;;;;;;5054907;28;20229;-37
2023/05/19 10:18:26;;;;;;;7.50;4.50;;;;;;;;;;5076013;28;20230;-37
2023/05/19 10:20:56;;;;;;;5.65;3.85;;;;;;;;;;5076029;28;20207;-37
2023/05/19 10:23:24;;;;;;;7.25;3.97;;;;;;;;;;5076000;28;20199;-38
2023/05/19 10:25:53;;;;;;;8.77;4.20;;;;;;;;;;5075150;28;20328;-37
2023/05/19 10:28:24;;;;;;;7.70;4.15;;;;;;;;;;5075958;28;20566;-37
2023/05/19 10:30:53;;;;;;;7.95;3.97;;;;;;;;;;5074891;28;20222;-37
2023/05/19 10:33:28;;;;;;;7.93;4.43;;;;;;;;;;5076167;28;20207;-37
2023/05/19 10:36:46;;;;;;;6.47;3.95;;;;;;;;;;5075651;28;20210;-37
2023/05/19 10:39:15;;;;;;;9.63;4.18;;;;;;;;;;5033561;28;20201;-37
2023/05/19 10:41:47;;;;;;;8.48;4.15;;;;;;;;;;5033626;28;20201;-37
2023/05/19 10:44:34;;;;;;;7.90;3.85;;;;;;;;;;5033952;28;20343;-37
2023/05/19 10:47:01;;;;;;;5.35;3.40;;;;;;;;;;5033618;28;20247;-37
2023/05/19 10:49:34;;;;;;;6.20;4.07;;;;;;;;;;5033292;28;20331;-37
2023/05/19 10:52:01;;;;;;;9.40;4.38;;;;;;;;;;5033425;28;20212;-37
2023/05/19 10:54:45;;;;;;;7.32;3.85;;;;;;;;;;5033253;28;20204;-38
2023/05/19 10:57:30;;;;;;;8.48;3.80;;;;;;;;;;5017057;28;20673;-37
2023/05/19 11:00:08;;;;;;;9.80;4.05;;;;;;;;;;5032493;28;20291;-37
2023/05/19 11:02:40;;;;;;;10.02;4.15;;;;;;;;;;5033256;28;20244;-37
2023/05/19 11:05:08;;;;;;;6.63;4.30;;;;;;;;;;5033510;28;20212;-37
2023/05/19 11:07:35;;;;;;;10.55;4.93;;;;;;;;;;5032928;28;20320;-38
2023/05/19 11:10:06;;;;;;;8.25;4.25;;;;;;;;;;5033041;28;20201;-37
2023/05/19 11:12:41;;;;;;;7.32;4.50;;;;;;;;;;5033150;28;20209;-37
2023/05/19 11:15:15;;;;;;;6.38;4.18;;;;;;;;;;5064211;28;20207;-38
2023/05/19 11:17:47;;;;;;;6.07;3.90;;;;;;;;;;5075072;28;20719;-37
2023/05/19 11:20:24;;;;;;;8.35;4.07;;;;;;;;;;5075304;28;20203;-37
2023/05/19 11:23:04;;;;;;;9.63;4.93;;;;;;;;;;5075024;28;20203;-37
2023/05/19 11:25:44;;;;;;;6.80;4.10;;;;;;;;;;5075226;28;20202;-37
2023/05/19 11:28:12;;;;;;;5.80;3.78;;;;;;;;;;5074469;28;20256;-37
2023/05/19 11:30:44;;;;;;;7.32;4.32;;;;;;;;;;5073601;28;20237;-37
2023/05/19 11:33:12;;;;;;;6.55;4.13;;;;;;;;;;5075001;28;20241;-38
2023/05/19 11:35:41;;;;;;;9.55;4.40;;;;;;;;;;5070000;28;20251;-37
2023/05/19 11:38:09;;;;;;;8.15;4.20;;;;;;;;;;5068141;28;20235;-38
2023/05/19 11:40:37;;;;;;;10.45;4.65;;;;;;;;;;5071597;28;20230;-39
2023/05/19 11:43:05;;;;;;;10.13;4.57;;;;;;;;;;5073359;28;20277;-40
2023/05/19 11:45:33;;;;;;;8.60;4.57;;;;;;;;;;5072515;28;20567;-41
2023/05/19 11:48:04;;;;;;;6.85;4.10;;;;;;;;;;5071442;28;20268;-37
2023/05/19 11:50:32;;;;;;;8.23;4.88;;;;;;;;;;5068701;28;20239;-39
2023/05/19 11:53:00;;;;;;;7.10;4.22;;;;;;;;;;5072742;28;20227;-38
2023/05/19 11:55:27;;;;;;;8.00;4.45;;;;;;;;;;5070881;28;20222;-39
2023/05/19 11:57:58;;;;;;;7.80;4.18;;;;;;;;;;5072499;28;20231;-39
2023/05/19 12:00:29;;;;;;;6.35;4.07;;;;;;;;;;5071865;28;20249;-39
2023/05/19 12:02:57;;;;;;;9.18;5.43;;;;;;;;;;5069917;28;20576;-38
2023/05/19 12:05:25;;;;;;;9.30;4.45;;;;;;;;;;5072306;28;20769;-40
2023/05/19 12:07:52;;;;;;;9.32;4.72;;;;;;;;;;5072223;28;20273;-38
2023/05/19 12:10:24;;;;;;;8.13;4.32;;;;;;;;;;5070455;28;20290;-39
2023/05/19 12:12:52;;;;;;;8.02;4.32;;;;;;;;;;5071487;28;20238;-39
2023/05/19 12:15:23;;;;;;;6.88;4.43;;;;;;;;;;5069549;28;20219;-39
2023/05/19 12:18:00;;;;;;;7.10;4.90;;;;;;;;;;5073437;28;20211;-39
2023/05/19 12:20:28;;;;;;;9.55;4.22;;;;;;;;;;5071887;28;20191;-39
2023/05/19 12:22:55;;;;;;;8.38;4.68;;;;;;;;;;5072860;28;20663;-38
2023/05/19 12:25:23;;;;;;;6.55;4.00;;;;;;;;;;5069173;28;20248;-38
2023/05/19 12:27:54;;;;;;;7.07;3.90;;;;;;;;;;5072888;28;20206;-38
2023/05/19 12:30:30;;;;;;;8.30;4.03;;;;;;;;;;5072983;28;20192;-40
2023/05/19 12:32:58;;;;;;;6.25;3.97;;;;;;;;;;5069747;28;20248;-43
2023/05/19 12:35:32;;;;;;;7.15;3.95;;;;;;;;;;5069591;28;20315;-38
2023/05/19 12:38:04;;;;;;;6.78;3.83;;;;;;;;;;5070522;28;20226;-39
2023/05/19 12:40:35;;;;;;;5.38;3.83;;;;;;;;;;5070935;28;20246;-41
2023/05/19 12:43:04;;;;;;;7.50;4.20;;;;;;;;;;5060833;28;20223;-39
2023/05/19 12:45:35;;;;;;;6.20;3.70;;;;;;;;;;5068639;28;20227;-38
2023/05/19 12:48:05;;;;;;;8.02;4.30;;;;;;;;;;5072250;28;20211;-43
2023/05/19 12:50:32;;;;;;;6.10;3.60;;;;;;;;;;5052403;28;20692;-39
2023/05/19 12:53:01;;;;;;;9.18;3.72;;;;;;;;;;5066045;28;20223;-43
2023/05/19 12:55:28;;;;;;;5.13;3.47;;;;;;;;;;5072505;28;20254;-39
2023/05/19 12:57:57;;;;;;;6.82;3.83;;;;;;;;;;5072525;28;20242;-38
2023/05/19 13:00:27;;;;;;;5.28;3.60;;;;;;;;;;5072035;28;20667;-39
2023/05/19 13:02:55;;;;;;;8.40;4.15;;;;;;;;;;5067461;28;20714;-38
2023/05/19 13:05:23;;;;;;;6.60;3.60;;;;;;;;;;5070251;28;20313;-39
2023/05/19 13:08:04;;;;;;;5.50;3.33;;;;;;;;;;5067269;28;20228;-39
2023/05/19 13:10:33;;;;;;;7.72;3.83;;;;;;;;;;5072516;28;20227;-39
2023/05/19 13:13:02;;;;;;;4.70;3.33;;;;;;;;;;5071999;28;20215;-40
2023/05/19 13:15:34;;;;;;;6.50;4.28;;;;;;;;;;5072306;28;20262;-38
2023/05/19 13:18:08;;;;;;;7.53;3.80;;;;;;;;;;5071363;28;20248;-40
2023/05/19 13:20:36;;;;;;;5.40;3.83;;;;;;;;;;5072615;28;20223;-38
2023/05/19 13:23:04;;;;;;;6.30;4.05;;;;;;;;;;5072289;28;20723;-39
2023/05/19 13:25:33;;;;;;;5.97;4.05;;;;;;;;;;5072101;28;20732;-38
2023/05/19 13:28:04;;;;;;;6.60;4.07;;;;;;;;;;5071032;28;20215;-38
2023/05/19 13:30:36;;;;;;;6.40;3.78;;;;;;;;;;5072103;28;20258;-37
2023/05/19 13:33:04;;;;;;;7.70;4.03;;;;;;;;;;5071639;28;20227;-39
2023/05/19 13:35:35;;;;;;;8.25;4.07;;;;;;;;;;5070278;28;20223;-38
2023/05/19 13:38:10;;;;;;;5.60;3.78;;;;;;;;;;5069186;28;20318;-40
2023/05/19 13:40:38;;;;;;;7.40;3.78;;;;;;;;;;5071205;28;20583;-39
2023/05/19 13:43:07;;;;;;;7.85;4.22;;;;;;;;;;5070600;28;20215;-39
2023/05/19 13:45:34;;;;;;;6.70;4.43;;;;;;;;;;5071602;28;20738;-38
2023/05/19 13:48:02;;;;;;;6.70;4.03;;;;;;;;;;5069297;28;20310;-39
2023/05/19 13:50:29;;;;;;;7.20;4.13;;;;;;;;;;5061149;28;20219;-37
2023/05/19 13:52:56;;;;;;;5.90;4.20;;;;;;;;;;5074901;28;20703;-38
2023/05/19 13:55:25;;;;;;;6.60;4.07;;;;;;;;;;5075171;28;20234;-37
2023/05/19 13:57:53;;;;;;;7.25;4.03;;;;;;;;;;5074448;28;20741;-39
2023/05/19 14:00:20;;;;;;;6.43;4.35;;;;;;;;;;5074732;28;20696;-39
2023/05/19 14:02:47;;;;;;;7.45;4.35;;;;;;;;;;5074513;28;20215;-38
2023/05/19 14:05:15;;;;;;;7.25;4.57;;;;;;;;;;5073708;28;20608;-38
2023/05/19 14:07:43;;;;;;;8.88;4.93;;;;;;;;;;5075150;28;20215;-39
2023/05/19 14:10:10;;;;;;;7.80;4.57;;;;;;;;;;5073506;28;20302;-40
2023/05/19 14:12:38;;;;;;;7.70;4.97;;;;;;;;;;5072612;28;20765;-38
2023/05/19 14:15:26;;;;;;;7.95;4.93;;;;;;;;;;5073328;28;20672;-40
2023/05/19 14:17:53;;;;;;;8.13;5.05;;;;;;;;;;5069034;28;20572;-39
2023/05/19 14:20:20;;;;;;;7.13;4.93;;;;;;;;;;5071875;28;20272;-39
2023/05/19 14:22:48;;;;;;;6.93;4.38;;;;;;;;;;5074900;28;20234;-39
2023/05/19 14:25:15;;;;;;;10.55;5.63;;;;;;;;;;5073476;28;20219;-39
2023/05/19 14:27:43;;;;;;;8.13;5.13;;;;;;;;;;5074699;28;20359;-40
2023/05/19 14:30:10;;;;;;;8.27;5.22;;;;;;;;;;5074843;28;20269;-39
2023/05/19 14:32:37;;;;;;;10.70;5.65;;;;;;;;;;5074414;28;20268;-40
2023/05/19 14:35:05;;;;;;;8.50;5.20;;;;;;;;;;5074616;28;20232;-40
2023/05/19 14:37:32;;;;;;;7.47;5.15;;;;;;;;;;5067288;28;20232;-39
2023/05/19 14:39:59;;;;;;;8.07;5.05;;;;;;;;;;5068821;28;20219;-39
2023/05/19 14:42:27;;;;;;;8.20;5.03;;;;;;;;;;5069706;28;20220;-40
2023/05/19 14:44:54;;;;;;;9.02;5.55;;;;;;;;;;5071314;28;20230;-40
2023/05/19 14:47:22;;;;;;;7.05;4.93;;;;;;;;;;5073412;28;20232;-39
2023/05/19 14:49:50;;;;;;;9.00;5.35;;;;;;;;;;5071635;28;20687;-40
2023/05/19 14:52:18;;;;;;;8.40;5.00;;;;;;;;;;5071832;28;20317;-39
2023/05/19 14:54:45;;;;;;;9.43;4.82;;;;;;;;;;5071547;28;20285;-40
2023/05/19 14:57:13;;;;;;;12.00;6.03;;;;;;;;;;5069727;28;20687;-38
2023/05/19 14:59:40;;;;;;;8.32;4.85;;;;;;;;;;5073644;28;20243;-39